sensor_id;sensor_type;location;lat;lon;timestamp;P1;durP1;ratioP1;P2;durP2;ratioP2
65971;SDS011;52726;48.852;9.152;2023-04-16T00:01:12;12.25;;;8.43;;
65971;SDS011;52726;48.852;9.152;2023-04-16T00:03:37;12.25;;;7.90;;
65971;SDS011;52726;48.852;9.152;2023-04-16T00:06:03;14.38;;;8.00;;
65971;SDS011;52726;48.852;9.152;2023-04-16T00:08:30;13.25;;;7.47;;
65971;SDS011;52726;48.852;9.152;2023-04-16T00:10:55;14.15;;;7.65;;
65971;SDS011;52726;48.852;9.152;2023-04-16T00:13:21;8.93;;;6.10;;
65971;SDS011;52726;48.852;9.152;2023-04-16T00:15:46;9.23;;;5.43;;
65971;SDS011;52726;48.852;9.152;2023-04-16T00:18:12;7.05;;;4.80;;
65971;SDS011;52726;48.852;9.152;2023-04-16T00:20:37;11.32;;;7.57;;
65971;SDS011;52726;48.852;9.152;2023-04-16T00:23:02;12.55;;;7.60;;
65971;SDS011;52726;48.852;9.152;2023-04-16T00:25:28;11.30;;;6.38;;
65971;SDS011;52726;48.852;9.152;2023-04-16T00:27:53;7.75;;;4.97;;
65971;SDS011;52726;48.852;9.152;2023-04-16T00:30:18;7.63;;;5.30;;
65971;SDS011;52726;48.852;9.152;2023-04-16T00:32:44;7.80;;;5.70;;
65971;SDS011;52726;48.852;9.152;2023-04-16T00:35:10;7.57;;;4.90;;
65971;SDS011;52726;48.852;9.152;2023-04-16T00:37:35;13.40;;;7.75;;
65971;SDS011;52726;48.852;9.152;2023-04-16T00:40:00;13.07;;;7.22;;
65971;SDS011;52726;48.852;9.152;2023-04-16T00:42:26;7.28;;;4.57;;
65971;SDS011;52726;48.852;9.152;2023-04-16T00:44:51;9.50;;;5.50;;
65971;SDS011;52726;48.852;9.152;2023-04-16T00:47:18;15.55;;;7.20;;
65971;SDS011;52726;48.852;9.152;2023-04-16T00:49:43;10.48;;;6.07;;
65971;SDS011;52726;48.852;9.152;2023-04-16T00:52:10;12.50;;;7.25;;
65971;SDS011;52726;48.852;9.152;2023-04-16T00:54:35;11.57;;;6.53;;
65971;SDS011;52726;48.852;9.152;2023-04-16T00:57:01;12.73;;;5.78;;
65971;SDS011;52726;48.852;9.152;2023-04-16T00:59:27;13.38;;;8.20;;
65971;SDS011;52726;48.852;9.152;2023-04-16T01:01:53;12.93;;;6.88;;
65971;SDS011;52726;48.852;9.152;2023-04-16T01:04:18;11.45;;;6.95;;
65971;SDS011;52726;48.852;9.152;2023-04-16T01:06:44;12.65;;;6.50;;
65971;SDS011;52726;48.852;9.152;2023-04-16T01:09:10;9.43;;;5.88;;
65971;SDS011;52726;48.852;9.152;2023-04-16T01:11:38;11.95;;;7.43;;
65971;SDS011;52726;48.852;9.152;2023-04-16T01:14:03;16.20;;;7.55;;
65971;SDS011;52726;48.852;9.152;2023-04-16T01:16:29;12.07;;;6.70;;
65971;SDS011;52726;48.852;9.152;2023-04-16T01:18:56;9.75;;;5.32;;
65971;SDS011;52726;48.852;9.152;2023-04-16T01:21:21;8.25;;;5.72;;
65971;SDS011;52726;48.852;9.152;2023-04-16T01:23:47;9.43;;;5.88;;
65971;SDS011;52726;48.852;9.152;2023-04-16T01:26:12;9.18;;;5.93;;
65971;SDS011;52726;48.852;9.152;2023-04-16T01:28:37;6.13;;;5.35;;
65971;SDS011;52726;48.852;9.152;2023-04-16T01:31:03;9.57;;;4.82;;
65971;SDS011;52726;48.852;9.152;2023-04-16T01:33:28;6.97;;;5.05;;
65971;SDS011;52726;48.852;9.152;2023-04-16T01:35:53;9.90;;;5.95;;
65971;SDS011;52726;48.852;9.152;2023-04-16T01:38:19;9.88;;;5.82;;
65971;SDS011;52726;48.852;9.152;2023-04-16T01:40:44;4.70;;;2.90;;
65971;SDS011;52726;48.852;9.152;2023-04-16T01:43:10;11.65;;;5.45;;
65971;SDS011;52726;48.852;9.152;2023-04-16T01:45:35;9.95;;;6.15;;
65971;SDS011;52726;48.852;9.152;2023-04-16T01:48:00;8.23;;;5.10;;
65971;SDS011;52726;48.852;9.152;2023-04-16T07:19:28;11.90;;;6.90;;
65971;SDS011;52726;48.852;9.152;2023-04-16T07:21:56;19.95;;;9.77;;
65971;SDS011;52726;48.852;9.152;2023-04-16T07:24:22;20.85;;;10.85;;
65971;SDS011;52726;48.852;9.152;2023-04-16T07:26:48;21.42;;;11.02;;
65971;SDS011;52726;48.852;9.152;2023-04-16T07:29:13;19.55;;;10.15;;
65971;SDS011;52726;48.852;9.152;2023-04-16T07:31:38;20.60;;;9.75;;
65971;SDS011;52726;48.852;9.152;2023-04-16T07:34:04;23.45;;;11.05;;
65971;SDS011;52726;48.852;9.152;2023-04-16T07:36:29;22.23;;;8.35;;
65971;SDS011;52726;48.852;9.152;2023-04-16T07:38:55;21.73;;;10.82;;
65971;SDS011;52726;48.852;9.152;2023-04-16T07:41:21;21.42;;;9.90;;
65971;SDS011;52726;48.852;9.152;2023-04-16T07:43:46;23.35;;;12.57;;
65971;SDS011;52726;48.852;9.152;2023-04-16T07:46:11;20.25;;;7.63;;
65971;SDS011;52726;48.852;9.152;2023-04-16T07:48:37;21.60;;;9.30;;
65971;SDS011;52726;48.852;9.152;2023-04-16T07:51:02;25.33;;;11.48;;
65971;SDS011;52726;48.852;9.152;2023-04-16T07:53:27;18.50;;;9.63;;
65971;SDS011;52726;48.852;9.152;2023-04-16T07:55:53;19.95;;;8.60;;
65971;SDS011;52726;48.852;9.152;2023-04-16T07:58:18;13.88;;;7.78;;
65971;SDS011;52726;48.852;9.152;2023-04-16T08:00:44;11.07;;;7.55;;
65971;SDS011;52726;48.852;9.152;2023-04-16T08:03:09;17.83;;;8.63;;
65971;SDS011;52726;48.852;9.152;2023-04-16T08:05:35;9.48;;;6.00;;
65971;SDS011;52726;48.852;9.152;2023-04-16T08:08:00;17.30;;;9.43;;
65971;SDS011;52726;48.852;9.152;2023-04-16T08:10:25;13.77;;;7.15;;
65971;SDS011;52726;48.852;9.152;2023-04-16T08:12:51;16.27;;;9.25;;
65971;SDS011;52726;48.852;9.152;2023-04-16T08:15:17;17.63;;;9.27;;
65971;SDS011;52726;48.852;9.152;2023-04-16T08:17:43;7.70;;;4.72;;
65971;SDS011;52726;48.852;9.152;2023-04-16T08:20:08;11.00;;;7.15;;
65971;SDS011;52726;48.852;9.152;2023-04-16T08:22:34;11.18;;;7.32;;
65971;SDS011;52726;48.852;9.152;2023-04-16T08:24:59;13.43;;;7.95;;
65971;SDS011;52726;48.852;9.152;2023-04-16T08:27:25;11.13;;;6.45;;
65971;SDS011;52726;48.852;9.152;2023-04-16T08:29:51;10.30;;;6.25;;
65971;SDS011;52726;48.852;9.152;2023-04-16T08:32:16;12.75;;;5.47;;
65971;SDS011;52726;48.852;9.152;2023-04-16T08:34:41;10.43;;;5.85;;
65971;SDS011;52726;48.852;9.152;2023-04-16T08:37:07;18.70;;;8.75;;
65971;SDS011;52726;48.852;9.152;2023-04-16T08:39:33;8.82;;;5.65;;
65971;SDS011;52726;48.852;9.152;2023-04-16T08:41:59;14.65;;;7.82;;
65971;SDS011;52726;48.852;9.152;2023-04-16T08:44:32;17.35;;;9.15;;
65971;SDS011;52726;48.852;9.152;2023-04-16T08:47:00;10.77;;;5.72;;
65971;SDS011;52726;48.852;9.152;2023-04-16T08:49:26;13.32;;;7.05;;
65971;SDS011;52726;48.852;9.152;2023-04-16T08:51:55;13.05;;;8.15;;
65971;SDS011;52726;48.852;9.152;2023-04-16T08:57:17;13.05;;;6.68;;
65971;SDS011;52726;48.852;9.152;2023-04-16T08:59:45;12.40;;;6.97;;
65971;SDS011;52726;48.852;9.152;2023-04-16T09:02:11;12.20;;;6.35;;
65971;SDS011;52726;48.852;9.152;2023-04-16T09:04:37;13.43;;;6.60;;
65971;SDS011;52726;48.852;9.152;2023-04-16T09:07:03;15.43;;;7.50;;
65971;SDS011;52726;48.852;9.152;2023-04-16T09:09:32;17.52;;;6.40;;
65971;SDS011;52726;48.852;9.152;2023-04-16T09:11:58;16.10;;;5.22;;
65971;SDS011;52726;48.852;9.152;2023-04-16T09:14:23;16.00;;;8.32;;
65971;SDS011;52726;48.852;9.152;2023-04-16T09:16:49;17.42;;;9.57;;
65971;SDS011;52726;48.852;9.152;2023-04-16T09:19:18;15.07;;;8.55;;
65971;SDS011;52726;48.852;9.152;2023-04-16T09:21:44;15.00;;;7.53;;
65971;SDS011;52726;48.852;9.152;2023-04-16T09:24:11;14.30;;;8.60;;
65971;SDS011;52726;48.852;9.152;2023-04-16T09:26:36;12.35;;;6.88;;
65971;SDS011;52726;48.852;9.152;2023-04-16T09:29:02;17.92;;;9.23;;
65971;SDS011;52726;48.852;9.152;2023-04-16T09:31:28;19.15;;;6.85;;
65971;SDS011;52726;48.852;9.152;2023-04-16T09:34:27;19.58;;;9.15;;
65971;SDS011;52726;48.852;9.152;2023-04-16T09:36:45;11.70;;;5.68;;
65971;SDS011;52726;48.852;9.152;2023-04-16T09:39:17;15.32;;;7.10;;
65971;SDS011;52726;48.852;9.152;2023-04-16T09:41:43;17.45;;;8.90;;
65971;SDS011;52726;48.852;9.152;2023-04-16T09:44:11;18.55;;;7.70;;
65971;SDS011;52726;48.852;9.152;2023-04-16T09:46:39;18.92;;;8.10;;
65971;SDS011;52726;48.852;9.152;2023-04-16T09:49:15;17.20;;;7.75;;
65971;SDS011;52726;48.852;9.152;2023-04-16T09:51:48;18.08;;;8.95;;
65971;SDS011;52726;48.852;9.152;2023-04-16T09:54:17;12.43;;;7.03;;
65971;SDS011;52726;48.852;9.152;2023-04-16T09:56:44;17.10;;;8.55;;
65971;SDS011;52726;48.852;9.152;2023-04-16T09:59:17;12.30;;;7.63;;
65971;SDS011;52726;48.852;9.152;2023-04-16T10:01:43;17.77;;;7.68;;
65971;SDS011;52726;48.852;9.152;2023-04-16T10:07:28;16.92;;;7.22;;
65971;SDS011;52726;48.852;9.152;2023-04-16T10:10:13;12.88;;;7.55;;
65971;SDS011;52726;48.852;9.152;2023-04-16T10:12:39;18.20;;;9.15;;
65971;SDS011;52726;48.852;9.152;2023-04-16T10:15:05;14.98;;;6.90;;
65971;SDS011;52726;48.852;9.152;2023-04-16T10:17:31;15.25;;;8.77;;
65971;SDS011;52726;48.852;9.152;2023-04-16T10:20:16;12.65;;;2.95;;
65971;SDS011;52726;48.852;9.152;2023-04-16T10:22:42;15.07;;;6.70;;
65971;SDS011;52726;48.852;9.152;2023-04-16T10:25:08;13.45;;;6.53;;
65971;SDS011;52726;48.852;9.152;2023-04-16T10:48:17;14.23;;;6.78;;
65971;SDS011;52726;48.852;9.152;2023-04-16T10:51:08;10.18;;;5.38;;
65971;SDS011;52726;48.852;9.152;2023-04-16T10:54:30;12.23;;;6.30;;
65971;SDS011;52726;48.852;9.152;2023-04-16T10:57:02;15.85;;;7.15;;
65971;SDS011;52726;48.852;9.152;2023-04-16T10:59:34;13.18;;;6.20;;
65971;SDS011;52726;48.852;9.152;2023-04-16T11:02:13;12.00;;;6.00;;
65971;SDS011;52726;48.852;9.152;2023-04-16T11:04:43;15.00;;;6.95;;
65971;SDS011;52726;48.852;9.152;2023-04-16T11:07:18;10.10;;;5.72;;
65971;SDS011;52726;48.852;9.152;2023-04-16T11:16:41;10.82;;;4.82;;
65971;SDS011;52726;48.852;9.152;2023-04-16T11:19:28;6.57;;;3.97;;
65971;SDS011;52726;48.852;9.152;2023-04-16T11:21:54;6.32;;;3.75;;
65971;SDS011;52726;48.852;9.152;2023-04-16T11:24:20;6.53;;;3.88;;
65971;SDS011;52726;48.852;9.152;2023-04-16T11:26:51;13.38;;;6.35;;
65971;SDS011;52726;48.852;9.152;2023-04-16T11:29:20;9.43;;;4.88;;
65971;SDS011;52726;48.852;9.152;2023-04-16T11:32:02;9.30;;;5.15;;
65971;SDS011;52726;48.852;9.152;2023-04-16T11:35:30;11.07;;;6.38;;
65971;SDS011;52726;48.852;9.152;2023-04-16T11:37:55;5.22;;;3.10;;
65971;SDS011;52726;48.852;9.152;2023-04-16T11:40:21;8.55;;;4.55;;
65971;SDS011;52726;48.852;9.152;2023-04-16T11:42:47;6.93;;;3.67;;
65971;SDS011;52726;48.852;9.152;2023-04-16T11:45:25;8.93;;;3.92;;
65971;SDS011;52726;48.852;9.152;2023-04-16T11:47:54;9.20;;;5.03;;
65971;SDS011;52726;48.852;9.152;2023-04-16T11:50:25;8.95;;;4.47;;
65971;SDS011;52726;48.852;9.152;2023-04-16T11:52:53;7.28;;;4.30;;
65971;SDS011;52726;48.852;9.152;2023-04-16T11:55:20;6.78;;;4.38;;
65971;SDS011;52726;48.852;9.152;2023-04-16T11:57:46;7.78;;;4.13;;
65971;SDS011;52726;48.852;9.152;2023-04-16T12:00:12;8.05;;;5.15;;
65971;SDS011;52726;48.852;9.152;2023-04-16T12:08:16;7.40;;;3.42;;
65971;SDS011;52726;48.852;9.152;2023-04-16T12:11:00;7.38;;;3.60;;
65971;SDS011;52726;48.852;9.152;2023-04-16T12:13:28;9.27;;;4.35;;
65971;SDS011;52726;48.852;9.152;2023-04-16T12:15:55;7.28;;;3.60;;
65971;SDS011;52726;48.852;9.152;2023-04-16T12:18:24;5.75;;;3.75;;
65971;SDS011;52726;48.852;9.152;2023-04-16T12:20:53;9.68;;;4.88;;
65971;SDS011;52726;48.852;9.152;2023-04-16T12:23:23;5.57;;;2.95;;
65971;SDS011;52726;48.852;9.152;2023-04-16T12:25:53;5.97;;;3.17;;
65971;SDS011;52726;48.852;9.152;2023-04-16T12:28:32;5.65;;;2.70;;
65971;SDS011;52726;48.852;9.152;2023-04-16T12:30:59;4.03;;;2.90;;
65971;SDS011;52726;48.852;9.152;2023-04-16T12:33:26;6.00;;;3.78;;
65971;SDS011;52726;48.852;9.152;2023-04-16T12:35:51;4.68;;;3.05;;
65971;SDS011;52726;48.852;9.152;2023-04-16T12:38:17;4.28;;;3.00;;
65971;SDS011;52726;48.852;9.152;2023-04-16T12:40:51;6.57;;;3.08;;
65971;SDS011;52726;48.852;9.152;2023-04-16T12:43:20;6.47;;;3.97;;
65971;SDS011;52726;48.852;9.152;2023-04-16T12:45:46;8.98;;;4.28;;
65971;SDS011;52726;48.852;9.152;2023-04-16T12:48:14;7.07;;;4.25;;
65971;SDS011;52726;48.852;9.152;2023-04-16T12:53:30;7.80;;;4.53;;
65971;SDS011;52726;48.852;9.152;2023-04-16T12:59:18;8.45;;;4.30;;
65971;SDS011;52726;48.852;9.152;2023-04-16T13:01:53;10.85;;;4.75;;
65971;SDS011;52726;48.852;9.152;2023-04-16T13:04:19;8.15;;;5.00;;
65971;SDS011;52726;48.852;9.152;2023-04-16T13:06:47;10.18;;;4.70;;
65971;SDS011;52726;48.852;9.152;2023-04-16T13:13:05;5.65;;;3.55;;
65971;SDS011;52726;48.852;9.152;2023-04-16T13:16:03;8.90;;;4.03;;
65971;SDS011;52726;48.852;9.152;2023-04-16T13:18:34;7.57;;;3.78;;
65971;SDS011;52726;48.852;9.152;2023-04-16T13:24:37;7.90;;;4.55;;
65971;SDS011;52726;48.852;9.152;2023-04-16T13:51:41;9.73;;;5.00;;
65971;SDS011;52726;48.852;9.152;2023-04-16T13:54:43;10.52;;;5.82;;
65971;SDS011;52726;48.852;9.152;2023-04-16T13:57:09;11.60;;;5.60;;
65971;SDS011;52726;48.852;9.152;2023-04-16T13:59:36;10.50;;;6.25;;
65971;SDS011;52726;48.852;9.152;2023-04-16T14:02:03;10.23;;;4.47;;
65971;SDS011;52726;48.852;9.152;2023-04-16T14:04:29;7.88;;;3.90;;
65971;SDS011;52726;48.852;9.152;2023-04-16T14:06:58;9.02;;;4.68;;
65971;SDS011;52726;48.852;9.152;2023-04-16T14:09:24;8.65;;;5.00;;
65971;SDS011;52726;48.852;9.152;2023-04-16T14:22:12;12.73;;;6.45;;
65971;SDS011;52726;48.852;9.152;2023-04-16T14:24:41;12.07;;;5.93;;
65971;SDS011;52726;48.852;9.152;2023-04-16T14:27:08;10.23;;;5.00;;
65971;SDS011;52726;48.852;9.152;2023-04-16T14:29:33;14.70;;;6.38;;
65971;SDS011;52726;48.852;9.152;2023-04-16T14:32:00;10.90;;;6.07;;
65971;SDS011;52726;48.852;9.152;2023-04-16T14:34:26;12.75;;;4.70;;
65971;SDS011;52726;48.852;9.152;2023-04-16T14:36:55;12.52;;;6.65;;
65971;SDS011;52726;48.852;9.152;2023-04-16T14:39:32;16.95;;;8.52;;
65971;SDS011;52726;48.852;9.152;2023-04-16T14:41:58;13.55;;;6.85;;
65971;SDS011;52726;48.852;9.152;2023-04-16T14:44:24;14.18;;;6.68;;
65971;SDS011;52726;48.852;9.152;2023-04-16T14:46:56;10.30;;;6.47;;
65971;SDS011;52726;48.852;9.152;2023-04-16T14:49:45;14.75;;;9.13;;
65971;SDS011;52726;48.852;9.152;2023-04-16T15:02:18;20.05;;;8.15;;
65971;SDS011;52726;48.852;9.152;2023-04-16T15:04:44;14.75;;;7.38;;
65971;SDS011;52726;48.852;9.152;2023-04-16T16:05:40;27.33;;;9.50;;
65971;SDS011;52726;48.852;9.152;2023-04-16T16:08:05;14.85;;;8.00;;
65971;SDS011;52726;48.852;9.152;2023-04-16T16:10:31;22.92;;;9.75;;
65971;SDS011;52726;48.852;9.152;2023-04-16T16:12:56;26.35;;;11.18;;
65971;SDS011;52726;48.852;9.152;2023-04-16T16:15:21;23.10;;;11.63;;
65971;SDS011;52726;48.852;9.152;2023-04-16T16:17:47;21.77;;;10.93;;
65971;SDS011;52726;48.852;9.152;2023-04-16T16:20:12;7.72;;;5.32;;
65971;SDS011;52726;48.852;9.152;2023-04-16T16:22:38;18.30;;;8.93;;
65971;SDS011;52726;48.852;9.152;2023-04-16T16:25:05;27.85;;;11.23;;
65971;SDS011;52726;48.852;9.152;2023-04-16T16:27:31;27.60;;;12.65;;
65971;SDS011;52726;48.852;9.152;2023-04-16T16:29:56;30.42;;;13.18;;
65971;SDS011;52726;48.852;9.152;2023-04-16T16:32:22;21.65;;;11.85;;
65971;SDS011;52726;48.852;9.152;2023-04-16T16:34:47;24.05;;;10.52;;
65971;SDS011;52726;48.852;9.152;2023-04-16T16:37:12;21.58;;;10.32;;
65971;SDS011;52726;48.852;9.152;2023-04-16T16:39:38;31.75;;;11.52;;
65971;SDS011;52726;48.852;9.152;2023-04-16T16:42:03;27.77;;;9.93;;
65971;SDS011;52726;48.852;9.152;2023-04-16T16:44:29;26.67;;;11.02;;
65971;SDS011;52726;48.852;9.152;2023-04-16T16:46:54;23.83;;;12.60;;
65971;SDS011;52726;48.852;9.152;2023-04-16T16:49:20;26.27;;;12.85;;
65971;SDS011;52726;48.852;9.152;2023-04-16T16:51:46;26.15;;;12.00;;
65971;SDS011;52726;48.852;9.152;2023-04-16T16:54:12;26.73;;;10.77;;
65971;SDS011;52726;48.852;9.152;2023-04-16T16:56:40;24.08;;;11.07;;
65971;SDS011;52726;48.852;9.152;2023-04-16T16:59:06;34.25;;;12.45;;
65971;SDS011;52726;48.852;9.152;2023-04-16T17:01:32;29.40;;;11.75;;
65971;SDS011;52726;48.852;9.152;2023-04-16T17:03:58;21.85;;;11.73;;
65971;SDS011;52726;48.852;9.152;2023-04-16T17:06:23;23.95;;;10.93;;
65971;SDS011;52726;48.852;9.152;2023-04-16T17:08:49;26.92;;;12.20;;
65971;SDS011;52726;48.852;9.152;2023-04-16T17:11:14;26.80;;;12.20;;
65971;SDS011;52726;48.852;9.152;2023-04-16T17:13:40;24.65;;;11.95;;
65971;SDS011;52726;48.852;9.152;2023-04-16T17:16:06;21.08;;;10.77;;
65971;SDS011;52726;48.852;9.152;2023-04-16T17:18:32;27.92;;;12.85;;
65971;SDS011;52726;48.852;9.152;2023-04-16T17:20:57;23.85;;;12.27;;
65971;SDS011;52726;48.852;9.152;2023-04-16T17:23:23;25.15;;;12.60;;
65971;SDS011;52726;48.852;9.152;2023-04-16T17:25:48;25.08;;;13.80;;
65971;SDS011;52726;48.852;9.152;2023-04-16T17:28:14;29.60;;;12.95;;
65971;SDS011;52726;48.852;9.152;2023-04-16T17:30:39;21.77;;;10.77;;
65971;SDS011;52726;48.852;9.152;2023-04-16T17:33:05;25.60;;;12.02;;
65971;SDS011;52726;48.852;9.152;2023-04-16T17:35:30;25.42;;;13.77;;
65971;SDS011;52726;48.852;9.152;2023-04-16T17:37:56;21.52;;;10.77;;
65971;SDS011;52726;48.852;9.152;2023-04-16T17:40:21;25.92;;;12.65;;
65971;SDS011;52726;48.852;9.152;2023-04-16T17:42:47;22.52;;;11.93;;
65971;SDS011;52726;48.852;9.152;2023-04-16T17:45:13;22.27;;;11.90;;
65971;SDS011;52726;48.852;9.152;2023-04-16T17:47:38;23.08;;;12.35;;
65971;SDS011;52726;48.852;9.152;2023-04-16T17:50:04;35.83;;;13.15;;
65971;SDS011;52726;48.852;9.152;2023-04-16T17:52:31;24.45;;;11.15;;
65971;SDS011;52726;48.852;9.152;2023-04-16T17:54:56;21.80;;;10.10;;
65971;SDS011;52726;48.852;9.152;2023-04-16T17:57:25;26.15;;;12.40;;
65971;SDS011;52726;48.852;9.152;2023-04-16T17:59:51;27.38;;;12.48;;
65971;SDS011;52726;48.852;9.152;2023-04-16T18:02:16;22.48;;;10.75;;
65971;SDS011;52726;48.852;9.152;2023-04-16T18:04:42;23.48;;;12.45;;
65971;SDS011;52726;48.852;9.152;2023-04-16T18:07:07;26.20;;;13.40;;
65971;SDS011;52726;48.852;9.152;2023-04-16T18:09:33;22.67;;;11.63;;
65971;SDS011;52726;48.852;9.152;2023-04-16T18:11:58;23.30;;;12.05;;
65971;SDS011;52726;48.852;9.152;2023-04-16T18:14:23;21.02;;;12.18;;
65971;SDS011;52726;48.852;9.152;2023-04-16T18:16:49;22.38;;;11.05;;
65971;SDS011;52726;48.852;9.152;2023-04-16T18:19:14;23.73;;;12.30;;
65971;SDS011;52726;48.852;9.152;2023-04-16T18:21:41;25.70;;;12.70;;
65971;SDS011;52726;48.852;9.152;2023-04-16T18:24:13;19.52;;;11.00;;
65971;SDS011;52726;48.852;9.152;2023-04-16T18:26:49;24.10;;;12.07;;
65971;SDS011;52726;48.852;9.152;2023-04-16T18:29:29;22.98;;;11.77;;
65971;SDS011;52726;48.852;9.152;2023-04-16T18:31:58;26.05;;;13.00;;
65971;SDS011;52726;48.852;9.152;2023-04-16T18:34:23;25.33;;;11.52;;
65971;SDS011;52726;48.852;9.152;2023-04-16T18:36:49;22.05;;;10.40;;
65971;SDS011;52726;48.852;9.152;2023-04-16T18:39:15;24.92;;;11.80;;
65971;SDS011;52726;48.852;9.152;2023-04-16T18:41:40;23.40;;;11.40;;
65971;SDS011;52726;48.852;9.152;2023-04-16T18:44:12;26.88;;;12.23;;
65971;SDS011;52726;48.852;9.152;2023-04-16T18:46:43;20.63;;;10.25;;
65971;SDS011;52726;48.852;9.152;2023-04-16T18:49:10;25.42;;;11.52;;
65971;SDS011;52726;48.852;9.152;2023-04-16T18:51:35;22.65;;;12.43;;
65971;SDS011;52726;48.852;9.152;2023-04-16T18:54:00;21.42;;;10.95;;
65971;SDS011;52726;48.852;9.152;2023-04-16T18:56:27;23.52;;;12.38;;
65971;SDS011;52726;48.852;9.152;2023-04-16T18:58:53;20.88;;;12.05;;
65971;SDS011;52726;48.852;9.152;2023-04-16T19:01:18;21.33;;;11.55;;
65971;SDS011;52726;48.852;9.152;2023-04-16T19:03:43;22.48;;;11.23;;
65971;SDS011;52726;48.852;9.152;2023-04-16T19:06:09;21.60;;;11.38;;
65971;SDS011;52726;48.852;9.152;2023-04-16T19:08:34;20.90;;;10.68;;
65971;SDS011;52726;48.852;9.152;2023-04-16T19:11:00;17.90;;;9.95;;
65971;SDS011;52726;48.852;9.152;2023-04-16T19:13:25;19.23;;;9.65;;
65971;SDS011;52726;48.852;9.152;2023-04-16T19:15:55;19.80;;;10.90;;
65971;SDS011;52726;48.852;9.152;2023-04-16T19:18:22;22.17;;;11.27;;
65971;SDS011;52726;48.852;9.152;2023-04-16T19:20:47;26.23;;;12.48;;
65971;SDS011;52726;48.852;9.152;2023-04-16T19:23:12;20.48;;;11.57;;
65971;SDS011;52726;48.852;9.152;2023-04-16T19:25:39;23.73;;;13.05;;
65971;SDS011;52726;48.852;9.152;2023-04-16T19:28:04;27.40;;;12.50;;
65971;SDS011;52726;48.852;9.152;2023-04-16T19:30:30;25.02;;;11.30;;
65971;SDS011;52726;48.852;9.152;2023-04-16T19:32:55;24.05;;;12.55;;
65971;SDS011;52726;48.852;9.152;2023-04-16T19:35:21;25.35;;;13.45;;
65971;SDS011;52726;48.852;9.152;2023-04-16T19:37:46;28.73;;;14.05;;
65971;SDS011;52726;48.852;9.152;2023-04-16T19:40:12;27.95;;;12.88;;
65971;SDS011;52726;48.852;9.152;2023-04-16T19:42:37;29.52;;;12.27;;
65971;SDS011;52726;48.852;9.152;2023-04-16T19:45:03;27.45;;;13.23;;
65971;SDS011;52726;48.852;9.152;2023-04-16T19:47:28;24.98;;;12.00;;
65971;SDS011;52726;48.852;9.152;2023-04-16T19:49:53;28.30;;;12.48;;
65971;SDS011;52726;48.852;9.152;2023-04-16T19:52:19;29.83;;;14.20;;
65971;SDS011;52726;48.852;9.152;2023-04-16T19:54:44;27.25;;;14.90;;
65971;SDS011;52726;48.852;9.152;2023-04-16T19:57:10;23.65;;;13.13;;
65971;SDS011;52726;48.852;9.152;2023-04-16T19:59:35;30.15;;;13.30;;
65971;SDS011;52726;48.852;9.152;2023-04-16T20:02:02;28.13;;;14.00;;
65971;SDS011;52726;48.852;9.152;2023-04-16T20:04:27;24.95;;;14.38;;
65971;SDS011;52726;48.852;9.152;2023-04-16T20:06:53;36.33;;;15.20;;
65971;SDS011;52726;48.852;9.152;2023-04-16T20:09:18;25.27;;;12.50;;
65971;SDS011;52726;48.852;9.152;2023-04-16T20:11:44;31.02;;;14.10;;
65971;SDS011;52726;48.852;9.152;2023-04-16T20:14:10;27.58;;;13.85;;
65971;SDS011;52726;48.852;9.152;2023-04-16T20:16:36;26.88;;;14.15;;
65971;SDS011;52726;48.852;9.152;2023-04-16T20:19:02;26.35;;;13.38;;
65971;SDS011;52726;48.852;9.152;2023-04-16T20:21:28;26.77;;;12.25;;
65971;SDS011;52726;48.852;9.152;2023-04-16T20:23:53;27.70;;;13.43;;
65971;SDS011;52726;48.852;9.152;2023-04-16T20:26:18;29.80;;;13.73;;
65971;SDS011;52726;48.852;9.152;2023-04-16T20:28:44;25.02;;;13.88;;
65971;SDS011;52726;48.852;9.152;2023-04-16T20:31:10;29.30;;;13.90;;
65971;SDS011;52726;48.852;9.152;2023-04-16T20:33:35;22.48;;;13.60;;
65971;SDS011;52726;48.852;9.152;2023-04-16T20:36:02;24.30;;;12.55;;
65971;SDS011;52726;48.852;9.152;2023-04-16T20:38:28;33.45;;;13.55;;
65971;SDS011;52726;48.852;9.152;2023-04-16T20:40:56;25.10;;;13.10;;
65971;SDS011;52726;48.852;9.152;2023-04-16T20:43:34;25.20;;;13.77;;
65971;SDS011;52726;48.852;9.152;2023-04-16T20:46:07;26.02;;;13.40;;
65971;SDS011;52726;48.852;9.152;2023-04-16T20:48:33;25.95;;;13.82;;
65971;SDS011;52726;48.852;9.152;2023-04-16T20:50:59;24.05;;;12.75;;
65971;SDS011;52726;48.852;9.152;2023-04-16T20:53:26;24.92;;;12.35;;
65971;SDS011;52726;48.852;9.152;2023-04-16T20:55:52;30.25;;;13.70;;
65971;SDS011;52726;48.852;9.152;2023-04-16T20:58:18;25.80;;;12.70;;
65971;SDS011;52726;48.852;9.152;2023-04-16T21:03:59;21.98;;;11.02;;
65971;SDS011;52726;48.852;9.152;2023-04-16T21:06:24;20.48;;;11.02;;
65971;SDS011;52726;48.852;9.152;2023-04-16T21:08:50;23.73;;;10.73;;
65971;SDS011;52726;48.852;9.152;2023-04-16T21:11:15;20.30;;;11.57;;
65971;SDS011;52726;48.852;9.152;2023-04-16T21:13:40;19.67;;;11.07;;
65971;SDS011;52726;48.852;9.152;2023-04-16T21:16:06;27.77;;;12.82;;
65971;SDS011;52726;48.852;9.152;2023-04-16T21:18:33;17.90;;;10.50;;
65971;SDS011;52726;48.852;9.152;2023-04-16T21:21:06;20.13;;;11.73;;
65971;SDS011;52726;48.852;9.152;2023-04-16T21:23:34;16.65;;;9.80;;
65971;SDS011;52726;48.852;9.152;2023-04-16T21:25:59;22.30;;;11.65;;
65971;SDS011;52726;48.852;9.152;2023-04-16T21:28:25;18.13;;;10.50;;
65971;SDS011;52726;48.852;9.152;2023-04-16T21:30:51;25.88;;;11.90;;
65971;SDS011;52726;48.852;9.152;2023-04-16T21:33:17;22.92;;;11.13;;
65971;SDS011;52726;48.852;9.152;2023-04-16T21:35:42;19.92;;;11.77;;
65971;SDS011;52726;48.852;9.152;2023-04-16T21:40:48;21.80;;;10.85;;
65971;SDS011;52726;48.852;9.152;2023-04-16T21:43:20;21.95;;;10.82;;
65971;SDS011;52726;48.852;9.152;2023-04-16T21:45:46;28.75;;;12.30;;
65971;SDS011;52726;48.852;9.152;2023-04-16T21:48:11;24.83;;;11.68;;
65971;SDS011;52726;48.852;9.152;2023-04-16T21:50:37;21.95;;;11.23;;
65971;SDS011;52726;48.852;9.152;2023-04-16T21:53:02;18.98;;;10.70;;
65971;SDS011;52726;48.852;9.152;2023-04-16T21:55:30;17.48;;;10.07;;
65971;SDS011;52726;48.852;9.152;2023-04-16T21:57:56;17.65;;;10.60;;
65971;SDS011;52726;48.852;9.152;2023-04-16T22:00:25;19.73;;;9.57;;
65971;SDS011;52726;48.852;9.152;2023-04-16T22:02:50;20.05;;;11.27;;
65971;SDS011;52726;48.852;9.152;2023-04-16T22:05:20;17.65;;;9.82;;
65971;SDS011;52726;48.852;9.152;2023-04-16T22:07:47;19.42;;;10.07;;
65971;SDS011;52726;48.852;9.152;2023-04-16T22:10:12;17.13;;;10.13;;
65971;SDS011;52726;48.852;9.152;2023-04-16T22:12:38;20.35;;;9.98;;
65971;SDS011;52726;48.852;9.152;2023-04-16T22:15:04;22.50;;;11.30;;
65971;SDS011;52726;48.852;9.152;2023-04-16T22:17:31;18.08;;;9.38;;
65971;SDS011;52726;48.852;9.152;2023-04-16T22:19:58;17.70;;;9.93;;
65971;SDS011;52726;48.852;9.152;2023-04-16T22:22:24;18.13;;;10.80;;
65971;SDS011;52726;48.852;9.152;2023-04-16T22:24:50;18.15;;;9.35;;
65971;SDS011;52726;48.852;9.152;2023-04-16T22:27:15;17.20;;;10.07;;
65971;SDS011;52726;48.852;9.152;2023-04-16T22:29:41;20.00;;;9.98;;
65971;SDS011;52726;48.852;9.152;2023-04-16T22:32:06;16.77;;;9.88;;
65971;SDS011;52726;48.852;9.152;2023-04-16T22:34:31;18.20;;;8.95;;
65971;SDS011;52726;48.852;9.152;2023-04-16T22:37:03;17.08;;;9.45;;
65971;SDS011;52726;48.852;9.152;2023-04-16T22:39:28;18.73;;;10.18;;
65971;SDS011;52726;48.852;9.152;2023-04-16T22:41:55;18.60;;;8.50;;
65971;SDS011;52726;48.852;9.152;2023-04-16T22:44:21;18.83;;;9.38;;